sensor_id;sensor_type;location;lat;lon;timestamp;P1;durP1;ratioP1;P2;durP2;ratioP2
3095;SDS011;1558;42.700;23.360;2023-04-05T00:02:19;12.10;;;11.00;;
3095;SDS011;1558;42.700;23.360;2023-04-05T00:04:50;11.87;;;10.77;;
3095;SDS011;1558;42.700;23.360;2023-04-05T00:07:24;11.27;;;10.23;;
3095;SDS011;1558;42.700;23.360;2023-04-05T00:09:53;11.57;;;10.57;;
3095;SDS011;1558;42.700;23.360;2023-04-05T00:12:21;11.27;;;10.27;;
3095;SDS011;1558;42.700;23.360;2023-04-05T00:14:49;11.63;;;10.53;;
3095;SDS011;1558;42.700;23.360;2023-04-05T00:17:17;12.20;;;11.10;;
3095;SDS011;1558;42.700;23.360;2023-04-05T00:19:45;10.90;;;9.80;;
3095;SDS011;1558;42.700;23.360;2023-04-05T00:22:16;11.27;;;10.23;;
3095;SDS011;1558;42.700;23.360;2023-04-05T00:24:52;12.27;;;11.00;;
3095;SDS011;1558;42.700;23.360;2023-04-05T00:27:20;12.73;;;11.53;;
3095;SDS011;1558;42.700;23.360;2023-04-05T00:29:48;12.00;;;10.90;;
3095;SDS011;1558;42.700;23.360;2023-04-05T00:32:16;11.00;;;9.90;;
3095;SDS011;1558;42.700;23.360;2023-04-05T00:34:44;10.77;;;9.77;;
3095;SDS011;1558;42.700;23.360;2023-04-05T00:37:12;10.30;;;9.30;;
3095;SDS011;1558;42.700;23.360;2023-04-05T00:39:40;11.23;;;10.03;;
3095;SDS011;1558;42.700;23.360;2023-04-05T00:42:09;10.93;;;9.73;;
3095;SDS011;1558;42.700;23.360;2023-04-05T00:44:37;10.90;;;9.90;;
3095;SDS011;1558;42.700;23.360;2023-04-05T00:47:05;10.40;;;9.50;;
3095;SDS011;1558;42.700;23.360;2023-04-05T00:49:34;9.83;;;8.93;;
3095;SDS011;1558;42.700;23.360;2023-04-05T00:52:03;10.33;;;9.37;;
3095;SDS011;1558;42.700;23.360;2023-04-05T00:54:31;8.97;;;8.17;;
3095;SDS011;1558;42.700;23.360;2023-04-05T00:57:00;9.73;;;8.83;;
3095;SDS011;1558;42.700;23.360;2023-04-05T00:59:30;8.87;;;8.07;;
3095;SDS011;1558;42.700;23.360;2023-04-05T01:01:59;9.67;;;8.77;;
3095;SDS011;1558;42.700;23.360;2023-04-05T01:04:30;9.60;;;8.80;;
3095;SDS011;1558;42.700;23.360;2023-04-05T01:07:04;9.10;;;8.30;;
3095;SDS011;1558;42.700;23.360;2023-04-05T01:09:37;9.77;;;8.87;;
3095;SDS011;1558;42.700;23.360;2023-04-05T01:12:17;8.97;;;8.17;;
3095;SDS011;1558;42.700;23.360;2023-04-05T01:14:49;8.83;;;8.00;;
3095;SDS011;1558;42.700;23.360;2023-04-05T01:17:19;9.33;;;8.50;;
3095;SDS011;1558;42.700;23.360;2023-04-05T01:19:48;8.73;;;7.93;;
3095;SDS011;1558;42.700;23.360;2023-04-05T01:22:27;9.00;;;8.27;;
3095;SDS011;1558;42.700;23.360;2023-04-05T01:25:20;9.33;;;8.43;;
3095;SDS011;1558;42.700;23.360;2023-04-05T01:28:10;9.00;;;8.30;;
3095;SDS011;1558;42.700;23.360;2023-04-05T01:30:47;9.40;;;8.60;;
3095;SDS011;1558;42.700;23.360;2023-04-05T01:33:20;9.90;;;9.00;;
3095;SDS011;1558;42.700;23.360;2023-04-05T01:35:54;8.50;;;7.70;;
3095;SDS011;1558;42.700;23.360;2023-04-05T01:38:26;9.67;;;8.77;;
3095;SDS011;1558;42.700;23.360;2023-04-05T01:40:55;9.17;;;8.37;;
3095;SDS011;1558;42.700;23.360;2023-04-05T01:43:23;8.23;;;7.53;;
3095;SDS011;1558;42.700;23.360;2023-04-05T01:45:52;9.17;;;8.40;;
3095;SDS011;1558;42.700;23.360;2023-04-05T01:48:20;8.27;;;7.40;;
3095;SDS011;1558;42.700;23.360;2023-04-05T01:50:48;7.83;;;7.13;;
3095;SDS011;1558;42.700;23.360;2023-04-05T01:53:16;8.20;;;7.50;;
3095;SDS011;1558;42.700;23.360;2023-04-05T01:55:44;7.60;;;6.80;;
3095;SDS011;1558;42.700;23.360;2023-04-05T01:58:12;8.43;;;7.63;;
3095;SDS011;1558;42.700;23.360;2023-04-05T02:00:40;7.37;;;6.77;;
3095;SDS011;1558;42.700;23.360;2023-04-05T02:03:10;8.07;;;7.37;;
3095;SDS011;1558;42.700;23.360;2023-04-05T02:05:38;7.50;;;6.80;;
3095;SDS011;1558;42.700;23.360;2023-04-05T02:08:05;6.90;;;6.30;;
3095;SDS011;1558;42.700;23.360;2023-04-05T02:10:33;7.17;;;6.57;;
3095;SDS011;1558;42.700;23.360;2023-04-05T02:13:01;7.50;;;6.80;;
3095;SDS011;1558;42.700;23.360;2023-04-05T02:15:29;7.70;;;7.00;;
3095;SDS011;1558;42.700;23.360;2023-04-05T02:17:59;6.77;;;6.20;;
3095;SDS011;1558;42.700;23.360;2023-04-05T02:20:29;6.50;;;6.00;;
3095;SDS011;1558;42.700;23.360;2023-04-05T02:22:58;6.80;;;6.20;;
3095;SDS011;1558;42.700;23.360;2023-04-05T02:25:26;6.70;;;6.10;;
3095;SDS011;1558;42.700;23.360;2023-04-05T02:27:53;6.67;;;6.10;;
3095;SDS011;1558;42.700;23.360;2023-04-05T02:30:21;6.30;;;5.80;;
3095;SDS011;1558;42.700;23.360;2023-04-05T02:32:49;6.53;;;6.03;;
3095;SDS011;1558;42.700;23.360;2023-04-05T02:35:17;7.07;;;6.47;;
3095;SDS011;1558;42.700;23.360;2023-04-05T02:37:48;6.90;;;6.30;;
3095;SDS011;1558;42.700;23.360;2023-04-05T02:40:15;6.60;;;6.07;;
3095;SDS011;1558;42.700;23.360;2023-04-05T02:42:43;6.47;;;5.97;;
3095;SDS011;1558;42.700;23.360;2023-04-05T02:45:11;6.30;;;5.80;;
3095;SDS011;1558;42.700;23.360;2023-04-05T02:47:39;7.03;;;6.10;;
3095;SDS011;1558;42.700;23.360;2023-04-05T02:50:07;6.00;;;5.50;;
3095;SDS011;1558;42.700;23.360;2023-04-05T02:52:35;5.83;;;5.37;;
3095;SDS011;1558;42.700;23.360;2023-04-05T02:55:05;6.73;;;6.10;;
3095;SDS011;1558;42.700;23.360;2023-04-05T02:57:33;6.60;;;6.00;;
3095;SDS011;1558;42.700;23.360;2023-04-05T03:00:01;6.23;;;5.73;;
3095;SDS011;1558;42.700;23.360;2023-04-05T03:02:31;6.43;;;5.83;;
3095;SDS011;1558;42.700;23.360;2023-04-05T03:04:59;6.47;;;5.97;;
3095;SDS011;1558;42.700;23.360;2023-04-05T03:07:27;6.40;;;5.90;;
3095;SDS011;1558;42.700;23.360;2023-04-05T03:09:55;6.50;;;6.00;;
3095;SDS011;1558;42.700;23.360;2023-04-05T03:12:25;6.97;;;6.37;;
3095;SDS011;1558;42.700;23.360;2023-04-05T03:14:53;6.33;;;5.83;;
3095;SDS011;1558;42.700;23.360;2023-04-05T03:17:21;7.00;;;6.40;;
3095;SDS011;1558;42.700;23.360;2023-04-05T03:19:48;6.50;;;5.50;;
3095;SDS011;1558;42.700;23.360;2023-04-05T03:22:16;6.10;;;5.60;;
3095;SDS011;1558;42.700;23.360;2023-04-05T03:24:44;6.70;;;6.20;;
3095;SDS011;1558;42.700;23.360;2023-04-05T03:27:13;6.37;;;5.77;;
3095;SDS011;1558;42.700;23.360;2023-04-05T03:29:42;6.57;;;6.07;;
3095;SDS011;1558;42.700;23.360;2023-04-05T03:32:10;6.80;;;6.20;;
3095;SDS011;1558;42.700;23.360;2023-04-05T03:34:39;7.07;;;6.47;;
3095;SDS011;1558;42.700;23.360;2023-04-05T03:37:07;6.80;;;6.30;;
3095;SDS011;1558;42.700;23.360;2023-04-05T03:39:34;5.93;;;5.43;;
3095;SDS011;1558;42.700;23.360;2023-04-05T03:42:02;6.07;;;5.57;;
3095;SDS011;1558;42.700;23.360;2023-04-05T03:44:30;5.53;;;5.03;;
3095;SDS011;1558;42.700;23.360;2023-04-05T03:47:00;5.87;;;5.37;;
3095;SDS011;1558;42.700;23.360;2023-04-05T03:49:28;6.53;;;6.03;;
3095;SDS011;1558;42.700;23.360;2023-04-05T03:51:56;6.20;;;5.70;;
3095;SDS011;1558;42.700;23.360;2023-04-05T03:54:23;6.10;;;5.60;;
3095;SDS011;1558;42.700;23.360;2023-04-05T03:56:51;6.23;;;5.63;;
3095;SDS011;1558;42.700;23.360;2023-04-05T03:59:19;6.20;;;5.70;;
3095;SDS011;1558;42.700;23.360;2023-04-05T04:01:47;6.77;;;6.27;;
3095;SDS011;1558;42.700;23.360;2023-04-05T04:04:16;5.87;;;5.40;;
3095;SDS011;1558;42.700;23.360;2023-04-05T04:06:44;6.67;;;6.07;;
3095;SDS011;1558;42.700;23.360;2023-04-05T04:09:12;6.80;;;6.20;;
3095;SDS011;1558;42.700;23.360;2023-04-05T04:11:41;6.73;;;6.13;;
3095;SDS011;1558;42.700;23.360;2023-04-05T04:14:08;7.10;;;6.50;;
3095;SDS011;1558;42.700;23.360;2023-04-05T04:16:36;7.40;;;6.80;;
3095;SDS011;1558;42.700;23.360;2023-04-05T04:19:04;6.23;;;5.63;;
3095;SDS011;1558;42.700;23.360;2023-04-05T04:21:34;6.60;;;6.00;;
3095;SDS011;1558;42.700;23.360;2023-04-05T04:24:04;6.00;;;5.50;;
3095;SDS011;1558;42.700;23.360;2023-04-05T04:26:33;7.03;;;6.43;;
3095;SDS011;1558;42.700;23.360;2023-04-05T04:29:02;5.60;;;5.10;;
3095;SDS011;1558;42.700;23.360;2023-04-05T04:31:31;5.40;;;5.00;;
3095;SDS011;1558;42.700;23.360;2023-04-05T04:34:00;5.70;;;5.20;;
3095;SDS011;1558;42.700;23.360;2023-04-05T04:36:28;6.50;;;6.00;;
3095;SDS011;1558;42.700;23.360;2023-04-05T04:39:03;5.23;;;4.83;;
3095;SDS011;1558;42.700;23.360;2023-04-05T04:41:32;5.43;;;4.93;;
3095;SDS011;1558;42.700;23.360;2023-04-05T04:44:01;4.97;;;4.57;;
3095;SDS011;1558;42.700;23.360;2023-04-05T04:46:29;5.57;;;5.07;;
3095;SDS011;1558;42.700;23.360;2023-04-05T04:49:08;5.40;;;5.00;;
3095;SDS011;1558;42.700;23.360;2023-04-05T04:51:36;5.63;;;5.13;;
3095;SDS011;1558;42.700;23.360;2023-04-05T04:54:07;6.20;;;5.70;;
3095;SDS011;1558;42.700;23.360;2023-04-05T04:56:35;5.43;;;5.03;;
3095;SDS011;1558;42.700;23.360;2023-04-05T04:59:02;5.80;;;5.30;;
3095;SDS011;1558;42.700;23.360;2023-04-05T05:01:30;6.03;;;5.53;;
3095;SDS011;1558;42.700;23.360;2023-04-05T05:03:59;6.03;;;5.53;;
3095;SDS011;1558;42.700;23.360;2023-04-05T05:06:29;5.80;;;5.20;;
3095;SDS011;1558;42.700;23.360;2023-04-05T05:08:57;5.10;;;4.70;;
3095;SDS011;1558;42.700;23.360;2023-04-05T05:11:26;5.43;;;4.93;;
3095;SDS011;1558;42.700;23.360;2023-04-05T05:13:55;5.60;;;5.10;;
3095;SDS011;1558;42.700;23.360;2023-04-05T05:16:23;5.70;;;4.37;;
3095;SDS011;1558;42.700;23.360;2023-04-05T05:18:52;4.30;;;4.00;;
3095;SDS011;1558;42.700;23.360;2023-04-05T05:21:20;5.50;;;5.00;;
3095;SDS011;1558;42.700;23.360;2023-04-05T05:23:48;4.17;;;3.60;;
3095;SDS011;1558;42.700;23.360;2023-04-05T05:26:16;4.47;;;4.07;;
3095;SDS011;1558;42.700;23.360;2023-04-05T05:28:45;4.10;;;3.80;;
3095;SDS011;1558;42.700;23.360;2023-04-05T05:31:14;4.30;;;4.00;;
3095;SDS011;1558;42.700;23.360;2023-04-05T05:33:43;4.93;;;4.53;;
3095;SDS011;1558;42.700;23.360;2023-04-05T05:36:14;5.10;;;4.70;;
3095;SDS011;1558;42.700;23.360;2023-04-05T05:38:45;30.27;;;27.40;;
3095;SDS011;1558;42.700;23.360;2023-04-05T05:41:14;5.17;;;4.73;;
3095;SDS011;1558;42.700;23.360;2023-04-05T05:43:42;5.17;;;4.73;;
3095;SDS011;1558;42.700;23.360;2023-04-05T05:46:11;4.80;;;4.40;;
3095;SDS011;1558;42.700;23.360;2023-04-05T05:48:39;4.83;;;4.43;;
3095;SDS011;1558;42.700;23.360;2023-04-05T05:51:09;3.70;;;3.40;;
3095;SDS011;1558;42.700;23.360;2023-04-05T05:53:37;4.27;;;3.87;;
3095;SDS011;1558;42.700;23.360;2023-04-05T05:56:06;5.20;;;3.97;;
3095;SDS011;1558;42.700;23.360;2023-04-05T05:58:34;5.10;;;3.90;;
3095;SDS011;1558;42.700;23.360;2023-04-05T06:01:02;4.23;;;3.83;;
3095;SDS011;1558;42.700;23.360;2023-04-05T06:03:31;4.10;;;3.80;;
3095;SDS011;1558;42.700;23.360;2023-04-05T06:06:00;4.00;;;3.60;;
3095;SDS011;1558;42.700;23.360;2023-04-05T06:08:31;4.00;;;3.60;;
3095;SDS011;1558;42.700;23.360;2023-04-05T06:10:59;4.30;;;3.93;;
3095;SDS011;1558;42.700;23.360;2023-04-05T06:13:29;4.40;;;4.00;;
3095;SDS011;1558;42.700;23.360;2023-04-05T06:15:58;6.10;;;4.13;;
3095;SDS011;1558;42.700;23.360;2023-04-05T06:18:27;4.83;;;4.40;;
3095;SDS011;1558;42.700;23.360;2023-04-05T06:20:57;5.20;;;4.70;;
3095;SDS011;1558;42.700;23.360;2023-04-05T06:23:25;5.30;;;3.50;;
3095;SDS011;1558;42.700;23.360;2023-04-05T06:25:53;5.43;;;3.20;;
3095;SDS011;1558;42.700;23.360;2023-04-05T06:28:22;3.60;;;3.30;;
3095;SDS011;1558;42.700;23.360;2023-04-05T06:30:50;4.57;;;3.90;;
3095;SDS011;1558;42.700;23.360;2023-04-05T06:33:18;4.57;;;3.23;;
3095;SDS011;1558;42.700;23.360;2023-04-05T06:35:46;3.73;;;3.07;;
3095;SDS011;1558;42.700;23.360;2023-04-05T06:38:15;4.40;;;2.73;;
3095;SDS011;1558;42.700;23.360;2023-04-05T06:40:43;3.33;;;3.03;;
3095;SDS011;1558;42.700;23.360;2023-04-05T06:43:11;5.03;;;3.40;;
3095;SDS011;1558;42.700;23.360;2023-04-05T06:45:39;3.30;;;3.00;;
3095;SDS011;1558;42.700;23.360;2023-04-05T06:48:07;3.83;;;2.97;;
3095;SDS011;1558;42.700;23.360;2023-04-05T06:50:35;4.33;;;3.40;;
3095;SDS011;1558;42.700;23.360;2023-04-05T06:53:03;3.40;;;3.10;;
3095;SDS011;1558;42.700;23.360;2023-04-05T06:55:32;4.93;;;3.00;;
3095;SDS011;1558;42.700;23.360;2023-04-05T06:58:00;5.73;;;3.17;;
3095;SDS011;1558;42.700;23.360;2023-04-05T07:00:28;5.40;;;3.43;;
3095;SDS011;1558;42.700;23.360;2023-04-05T07:02:56;4.73;;;3.63;;
3095;SDS011;1558;42.700;23.360;2023-04-05T07:05:24;4.73;;;3.97;;
3095;SDS011;1558;42.700;23.360;2023-04-05T07:07:52;4.80;;;3.20;;
3095;SDS011;1558;42.700;23.360;2023-04-05T07:10:20;3.90;;;3.60;;
3095;SDS011;1558;42.700;23.360;2023-04-05T07:12:50;3.33;;;2.87;;
3095;SDS011;1558;42.700;23.360;2023-04-05T07:15:18;3.60;;;3.30;;
3095;SDS011;1558;42.700;23.360;2023-04-05T07:17:46;6.03;;;3.50;;
3095;SDS011;1558;42.700;23.360;2023-04-05T07:20:14;4.93;;;3.90;;
3095;SDS011;1558;42.700;23.360;2023-04-05T07:22:42;3.47;;;3.03;;
3095;SDS011;1558;42.700;23.360;2023-04-05T07:25:10;3.00;;;2.80;;
3095;SDS011;1558;42.700;23.360;2023-04-05T07:27:38;4.27;;;3.80;;
3095;SDS011;1558;42.700;23.360;2023-04-05T07:30:08;6.53;;;4.13;;
3095;SDS011;1558;42.700;23.360;2023-04-05T07:32:36;4.73;;;4.13;;
3095;SDS011;1558;42.700;23.360;2023-04-05T07:35:05;3.03;;;2.50;;
3095;SDS011;1558;42.700;23.360;2023-04-05T07:37:34;2.50;;;2.30;;
3095;SDS011;1558;42.700;23.360;2023-04-05T07:40:02;3.77;;;2.60;;
3095;SDS011;1558;42.700;23.360;2023-04-05T07:42:31;3.90;;;2.97;;
3095;SDS011;1558;42.700;23.360;2023-04-05T07:45:00;3.33;;;2.67;;
3095;SDS011;1558;42.700;23.360;2023-04-05T07:47:29;5.67;;;3.80;;
3095;SDS011;1558;42.700;23.360;2023-04-05T07:49:59;3.67;;;3.27;;
3095;SDS011;1558;42.700;23.360;2023-04-05T07:52:27;4.33;;;2.90;;
3095;SDS011;1558;42.700;23.360;2023-04-05T07:54:56;4.13;;;3.30;;
3095;SDS011;1558;42.700;23.360;2023-04-05T07:57:24;4.00;;;3.00;;
3095;SDS011;1558;42.700;23.360;2023-04-05T07:59:52;3.40;;;3.10;;
3095;SDS011;1558;42.700;23.360;2023-04-05T08:02:21;6.03;;;3.17;;
3095;SDS011;1558;42.700;23.360;2023-04-05T08:04:50;4.07;;;3.13;;
3095;SDS011;1558;42.700;23.360;2023-04-05T08:07:18;4.70;;;3.37;;
3095;SDS011;1558;42.700;23.360;2023-04-05T08:09:48;7.07;;;3.37;;
3095;SDS011;1558;42.700;23.360;2023-04-05T08:12:16;4.40;;;3.67;;
3095;SDS011;1558;42.700;23.360;2023-04-05T08:14:44;4.00;;;2.90;;
3095;SDS011;1558;42.700;23.360;2023-04-05T08:17:12;6.50;;;3.47;;
3095;SDS011;1558;42.700;23.360;2023-04-05T08:19:40;3.30;;;3.00;;
3095;SDS011;1558;42.700;23.360;2023-04-05T08:22:12;3.67;;;3.23;;
3095;SDS011;1558;42.700;23.360;2023-04-05T08:24:41;4.17;;;3.43;;
3095;SDS011;1558;42.700;23.360;2023-04-05T08:27:10;4.40;;;3.80;;
3095;SDS011;1558;42.700;23.360;2023-04-05T08:29:37;4.90;;;3.43;;
3095;SDS011;1558;42.700;23.360;2023-04-05T08:32:05;4.33;;;2.73;;
3095;SDS011;1558;42.700;23.360;2023-04-05T08:34:34;4.60;;;3.47;;
3095;SDS011;1558;42.700;23.360;2023-04-05T08:37:02;4.70;;;3.50;;
3095;SDS011;1558;42.700;23.360;2023-04-05T08:39:32;3.13;;;2.83;;
3095;SDS011;1558;42.700;23.360;2023-04-05T08:42:02;5.47;;;3.47;;
3095;SDS011;1558;42.700;23.360;2023-04-05T08:44:35;3.63;;;3.30;;
3095;SDS011;1558;42.700;23.360;2023-04-05T08:47:04;3.47;;;3.17;;
3095;SDS011;1558;42.700;23.360;2023-04-05T08:49:32;3.80;;;3.20;;
3095;SDS011;1558;42.700;23.360;2023-04-05T08:52:00;3.13;;;2.83;;
3095;SDS011;1558;42.700;23.360;2023-04-05T08:54:29;3.60;;;3.30;;
3095;SDS011;1558;42.700;23.360;2023-04-05T08:56:59;4.20;;;3.87;;
3095;SDS011;1558;42.700;23.360;2023-04-05T08:59:31;6.60;;;3.90;;
3095;SDS011;1558;42.700;23.360;2023-04-05T09:02:01;10.27;;;5.20;;
3095;SDS011;1558;42.700;23.360;2023-04-05T09:04:34;4.23;;;3.83;;
3095;SDS011;1558;42.700;23.360;2023-04-05T09:07:05;3.50;;;3.20;;
3095;SDS011;1558;42.700;23.360;2023-04-05T09:09:35;6.20;;;4.07;;
3095;SDS011;1558;42.700;23.360;2023-04-05T09:12:06;4.77;;;4.37;;
3095;SDS011;1558;42.700;23.360;2023-04-05T09:14:34;5.23;;;3.67;;
3095;SDS011;1558;42.700;23.360;2023-04-05T09:17:04;4.53;;;3.90;;
3095;SDS011;1558;42.700;23.360;2023-04-05T09:19:33;4.07;;;3.60;;
3095;SDS011;1558;42.700;23.360;2023-04-05T09:22:01;4.60;;;4.20;;
3095;SDS011;1558;42.700;23.360;2023-04-05T09:24:33;3.43;;;3.13;;
3095;SDS011;1558;42.700;23.360;2023-04-05T09:27:06;3.93;;;3.37;;
3095;SDS011;1558;42.700;23.360;2023-04-05T09:29:36;3.17;;;2.87;;
3095;SDS011;1558;42.700;23.360;2023-04-05T09:32:05;3.63;;;3.33;;
3095;SDS011;1558;42.700;23.360;2023-04-05T09:34:34;4.77;;;3.33;;
3095;SDS011;1558;42.700;23.360;2023-04-05T09:37:10;5.57;;;4.00;;
3095;SDS011;1558;42.700;23.360;2023-04-05T09:39:40;5.63;;;4.10;;
3095;SDS011;1558;42.700;23.360;2023-04-05T09:42:10;3.83;;;3.40;;
3095;SDS011;1558;42.700;23.360;2023-04-05T09:44:50;8.10;;;4.30;;
3095;SDS011;1558;42.700;23.360;2023-04-05T09:47:21;4.30;;;3.90;;
3095;SDS011;1558;42.700;23.360;2023-04-05T09:49:52;4.30;;;3.90;;
3095;SDS011;1558;42.700;23.360;2023-04-05T09:52:21;4.50;;;4.10;;
3095;SDS011;1558;42.700;23.360;2023-04-05T09:54:50;4.57;;;4.17;;
3095;SDS011;1558;42.700;23.360;2023-04-05T09:57:23;4.73;;;4.33;;
3095;SDS011;1558;42.700;23.360;2023-04-05T09:59:53;4.93;;;4.40;;
3095;SDS011;1558;42.700;23.360;2023-04-05T10:02:21;4.40;;;4.10;;
3095;SDS011;1558;42.700;23.360;2023-04-05T10:04:49;4.73;;;4.33;;
3095;SDS011;1558;42.700;23.360;2023-04-05T10:07:18;5.43;;;4.97;;
3095;SDS011;1558;42.700;23.360;2023-04-05T10:09:46;5.37;;;4.17;;
3095;SDS011;1558;42.700;23.360;2023-04-05T10:12:17;7.03;;;4.30;;
3095;SDS011;1558;42.700;23.360;2023-04-05T10:14:52;4.77;;;4.37;;
3095;SDS011;1558;42.700;23.360;2023-04-05T10:17:23;5.33;;;4.73;;
3095;SDS011;1558;42.700;23.360;2023-04-05T10:20:03;5.60;;;4.93;;
3095;SDS011;1558;42.700;23.360;2023-04-05T10:22:39;5.17;;;4.73;;
3095;SDS011;1558;42.700;23.360;2023-04-05T10:25:12;4.70;;;4.30;;
3095;SDS011;1558;42.700;23.360;2023-04-05T10:27:52;5.07;;;4.60;;
3095;SDS011;1558;42.700;23.360;2023-04-05T10:30:27;5.43;;;5.03;;
3095;SDS011;1558;42.700;23.360;2023-04-05T10:33:05;5.40;;;4.90;;
3095;SDS011;1558;42.700;23.360;2023-04-05T10:35:43;5.47;;;4.97;;
3095;SDS011;1558;42.700;23.360;2023-04-05T10:38:24;5.53;;;5.03;;
3095;SDS011;1558;42.700;23.360;2023-04-05T10:40:56;6.33;;;5.73;;
3095;SDS011;1558;42.700;23.360;2023-04-05T10:43:33;5.50;;;5.07;;
3095;SDS011;1558;42.700;23.360;2023-04-05T10:46:05;5.70;;;5.30;;
3095;SDS011;1558;42.700;23.360;2023-04-05T10:48:36;6.90;;;6.20;;
3095;SDS011;1558;42.700;23.360;2023-04-05T10:51:11;6.17;;;5.63;;
3095;SDS011;1558;42.700;23.360;2023-04-05T10:53:39;6.13;;;5.63;;
3095;SDS011;1558;42.700;23.360;2023-04-05T10:56:07;6.53;;;5.93;;
3095;SDS011;1558;42.700;23.360;2023-04-05T10:58:36;7.07;;;5.93;;
3095;SDS011;1558;42.700;23.360;2023-04-05T11:01:09;7.13;;;6.43;;
3095;SDS011;1558;42.700;23.360;2023-04-05T11:06:23;6.10;;;5.60;;
3095;SDS011;1558;42.700;23.360;2023-04-05T11:08:58;6.07;;;5.53;;
3095;SDS011;1558;42.700;23.360;2023-04-05T11:11:27;5.50;;;5.10;;
3095;SDS011;1558;42.700;23.360;2023-04-05T11:14:16;6.37;;;5.83;;
3095;SDS011;1558;42.700;23.360;2023-04-05T11:16:48;5.13;;;4.73;;
3095;SDS011;1558;42.700;23.360;2023-04-05T11:19:19;5.50;;;5.10;;
3095;SDS011;1558;42.700;23.360;2023-04-05T11:22:08;5.10;;;4.70;;
3095;SDS011;1558;42.700;23.360;2023-04-05T11:24:48;5.77;;;5.07;;
3095;SDS011;1558;42.700;23.360;2023-04-05T11:27:21;7.63;;;4.67;;
3095;SDS011;1558;42.700;23.360;2023-04-05T11:29:53;5.47;;;4.83;;
3095;SDS011;1558;42.700;23.360;2023-04-05T11:32:38;5.37;;;4.87;;
3095;SDS011;1558;42.700;23.360;2023-04-05T11:35:11;5.53;;;5.10;;
3095;SDS011;1558;42.700;23.360;2023-04-05T11:37:53;7.80;;;7.10;;
3095;SDS011;1558;42.700;23.360;2023-04-05T11:40:37;6.47;;;5.87;;
3095;SDS011;1558;42.700;23.360;2023-04-05T11:43:09;6.10;;;5.60;;
3095;SDS011;1558;42.700;23.360;2023-04-05T11:45:39;6.57;;;5.97;;
3095;SDS011;1558;42.700;23.360;2023-04-05T11:48:10;6.10;;;5.53;;
3095;SDS011;1558;42.700;23.360;2023-04-05T11:50:40;5.40;;;5.00;;
3095;SDS011;1558;42.700;23.360;2023-04-05T11:53:10;6.00;;;5.40;;
3095;SDS011;1558;42.700;23.360;2023-04-05T11:55:40;5.23;;;4.83;;
3095;SDS011;1558;42.700;23.360;2023-04-05T11:58:13;6.00;;;5.50;;
3095;SDS011;1558;42.700;23.360;2023-04-05T12:00:43;6.20;;;5.70;;
3095;SDS011;1558;42.700;23.360;2023-04-05T12:03:13;7.20;;;6.60;;
3095;SDS011;1558;42.700;23.360;2023-04-05T12:05:43;7.10;;;6.50;;
3095;SDS011;1558;42.700;23.360;2023-04-05T12:08:12;6.97;;;6.47;;
3095;SDS011;1558;42.700;23.360;2023-04-05T12:10:40;7.70;;;6.80;;
3095;SDS011;1558;42.700;23.360;2023-04-05T12:13:08;6.30;;;5.80;;
3095;SDS011;1558;42.700;23.360;2023-04-05T12:15:36;7.20;;;6.60;;
3095;SDS011;1558;42.700;23.360;2023-04-05T12:18:11;7.13;;;6.33;;
3095;SDS011;1558;42.700;23.360;2023-04-05T12:20:41;6.30;;;5.80;;
3095;SDS011;1558;42.700;23.360;2023-04-05T12:23:11;7.53;;;6.83;;
3095;SDS011;1558;42.700;23.360;2023-04-05T12:25:39;6.93;;;6.33;;
3095;SDS011;1558;42.700;23.360;2023-04-05T12:28:08;6.67;;;6.17;;
3095;SDS011;1558;42.700;23.360;2023-04-05T12:30:46;7.00;;;6.50;;
3095;SDS011;1558;42.700;23.360;2023-04-05T12:33:26;7.77;;;6.90;;
3095;SDS011;1558;42.700;23.360;2023-04-05T12:35:54;7.20;;;6.60;;
3095;SDS011;1558;42.700;23.360;2023-04-05T12:38:24;8.27;;;7.60;;
3095;SDS011;1558;42.700;23.360;2023-04-05T12:40:53;8.57;;;7.87;;
3095;SDS011;1558;42.700;23.360;2023-04-05T12:43:25;7.60;;;7.00;;
3095;SDS011;1558;42.700;23.360;2023-04-05T12:46:05;7.87;;;7.27;;
3095;SDS011;1558;42.700;23.360;2023-04-05T12:48:37;8.40;;;7.70;;
3095;SDS011;1558;42.700;23.360;2023-04-05T12:51:12;8.50;;;7.80;;
3095;SDS011;1558;42.700;23.360;2023-04-05T12:53:45;8.40;;;7.77;;
3095;SDS011;1558;42.700;23.360;2023-04-05T12:56:14;8.13;;;7.43;;
3095;SDS011;1558;42.700;23.360;2023-04-05T12:58:42;11.20;;;10.17;;
3095;SDS011;1558;42.700;23.360;2023-04-05T13:01:15;7.43;;;6.80;;
3095;SDS011;1558;42.700;23.360;2023-04-05T13:03:44;8.20;;;7.50;;
3095;SDS011;1558;42.700;23.360;2023-04-05T13:06:20;8.67;;;7.87;;
3095;SDS011;1558;42.700;23.360;2023-04-05T13:08:48;8.23;;;7.53;;
3095;SDS011;1558;42.700;23.360;2023-04-05T13:11:16;8.23;;;6.90;;
3095;SDS011;1558;42.700;23.360;2023-04-05T13:13:44;7.73;;;7.13;;
3095;SDS011;1558;42.700;23.360;2023-04-05T13:16:12;7.23;;;6.67;;
3095;SDS011;1558;42.700;23.360;2023-04-05T13:18:40;7.50;;;6.90;;
3095;SDS011;1558;42.700;23.360;2023-04-05T13:21:09;7.33;;;6.83;;
3095;SDS011;1558;42.700;23.360;2023-04-05T13:23:37;7.43;;;6.83;;
3095;SDS011;1558;42.700;23.360;2023-04-05T13:26:06;7.93;;;6.87;;
3095;SDS011;1558;42.700;23.360;2023-04-05T13:28:35;7.00;;;6.40;;
3095;SDS011;1558;42.700;23.360;2023-04-05T13:31:02;7.33;;;6.73;;
3095;SDS011;1558;42.700;23.360;2023-04-05T13:33:31;7.03;;;6.53;;
3095;SDS011;1558;42.700;23.360;2023-04-05T13:35:59;7.70;;;7.00;;
3095;SDS011;1558;42.700;23.360;2023-04-05T13:38:30;7.50;;;6.90;;
3095;SDS011;1558;42.700;23.360;2023-04-05T13:40:58;7.63;;;7.03;;
3095;SDS011;1558;42.700;23.360;2023-04-05T13:43:26;7.87;;;7.13;;
3095;SDS011;1558;42.700;23.360;2023-04-05T13:45:56;8.40;;;7.57;;
3095;SDS011;1558;42.700;23.360;2023-04-05T13:48:24;8.20;;;7.43;;
3095;SDS011;1558;42.700;23.360;2023-04-05T13:50:52;9.83;;;8.23;;
3095;SDS011;1558;42.700;23.360;2023-04-05T13:53:20;7.40;;;6.70;;
3095;SDS011;1558;42.700;23.360;2023-04-05T13:55:50;8.23;;;7.53;;
3095;SDS011;1558;42.700;23.360;2023-04-05T13:58:18;8.47;;;7.73;;
3095;SDS011;1558;42.700;23.360;2023-04-05T14:00:46;8.63;;;7.97;;
3095;SDS011;1558;42.700;23.360;2023-04-05T14:03:14;7.70;;;7.07;;
3095;SDS011;1558;42.700;23.360;2023-04-05T14:05:42;10.83;;;9.73;;
3095;SDS011;1558;42.700;23.360;2023-04-05T14:08:13;9.03;;;8.13;;
3095;SDS011;1558;42.700;23.360;2023-04-05T14:10:41;8.90;;;8.10;;
3095;SDS011;1558;42.700;23.360;2023-04-05T14:13:11;8.87;;;7.90;;
3095;SDS011;1558;42.700;23.360;2023-04-05T14:15:41;8.90;;;8.20;;
3095;SDS011;1558;42.700;23.360;2023-04-05T14:18:10;9.63;;;8.67;;
3095;SDS011;1558;42.700;23.360;2023-04-05T14:20:38;7.60;;;6.90;;
3095;SDS011;1558;42.700;23.360;2023-04-05T14:23:07;7.93;;;7.33;;
3095;SDS011;1558;42.700;23.360;2023-04-05T14:25:35;8.37;;;7.57;;
3095;SDS011;1558;42.700;23.360;2023-04-05T14:28:04;8.27;;;7.57;;
3095;SDS011;1558;42.700;23.360;2023-04-05T14:30:33;8.80;;;7.90;;
3095;SDS011;1558;42.700;23.360;2023-04-05T14:33:01;8.83;;;8.00;;
3095;SDS011;1558;42.700;23.360;2023-04-05T14:35:29;8.50;;;7.80;;
3095;SDS011;1558;42.700;23.360;2023-04-05T14:41:15;12.30;;;11.00;;
3095;SDS011;1558;42.700;23.360;2023-04-05T14:43:44;8.50;;;7.70;;
3095;SDS011;1558;42.700;23.360;2023-04-05T14:46:14;8.90;;;8.00;;
3095;SDS011;1558;42.700;23.360;2023-04-05T14:48:44;8.77;;;7.87;;
3095;SDS011;1558;42.700;23.360;2023-04-05T14:51:13;10.43;;;8.77;;
3095;SDS011;1558;42.700;23.360;2023-04-05T14:53:41;9.60;;;8.70;;
3095;SDS011;1558;42.700;23.360;2023-04-05T14:56:11;9.00;;;8.23;;
3095;SDS011;1558;42.700;23.360;2023-04-05T14:58:39;10.10;;;9.20;;
3095;SDS011;1558;42.700;23.360;2023-04-05T15:01:07;9.67;;;8.23;;
3095;SDS011;1558;42.700;23.360;2023-04-05T15:03:37;8.87;;;8.03;;
3095;SDS011;1558;42.700;23.360;2023-04-05T15:06:06;9.63;;;8.63;;
3095;SDS011;1558;42.700;23.360;2023-04-05T15:08:34;9.67;;;8.77;;
3095;SDS011;1558;42.700;23.360;2023-04-05T15:11:05;10.97;;;8.63;;
3095;SDS011;1558;42.700;23.360;2023-04-05T15:13:33;10.27;;;9.27;;
3095;SDS011;1558;42.700;23.360;2023-04-05T15:16:01;10.33;;;9.43;;
3095;SDS011;1558;42.700;23.360;2023-04-05T15:18:30;10.00;;;9.10;;
3095;SDS011;1558;42.700;23.360;2023-04-05T15:20:59;11.07;;;9.97;;
3095;SDS011;1558;42.700;23.360;2023-04-05T15:23:27;11.53;;;10.17;;